createdAt,value
2018-08-18T00:02:22.895Z,23.57
2018-08-18T00:04:54.402Z,23.58
2018-08-18T00:07:26.708Z,23.33
2018-08-18T00:09:57.830Z,23.33
2018-08-18T00:12:29.893Z,23.48
2018-08-18T00:15:01.643Z,23.53
2018-08-18T00:20:17.001Z,23.28
2018-08-18T00:22:49.340Z,23.32
2018-08-18T00:25:19.943Z,23.28
2018-08-18T00:27:50.908Z,23.04
2018-08-18T00:30:24.969Z,22.98
2018-08-18T00:35:50.030Z,22.49
2018-08-18T00:38:19.085Z,22.42
2018-08-18T00:40:47.912Z,22.58
2018-08-18T00:43:17.180Z,22.74
2018-08-18T00:45:45.984Z,22.77
2018-08-18T00:48:15.205Z,22.65
2018-08-18T00:50:44.951Z,22.57
2018-08-18T00:53:15.242Z,22.43
2018-08-18T00:55:44.281Z,22.49
2018-08-18T00:58:18.397Z,22.65
2018-08-18T01:00:51.861Z,22.82
2018-08-18T01:03:20.709Z,22.84
2018-08-18T01:05:49.641Z,22.57
2018-08-18T01:08:18.544Z,22.77
2018-08-18T01:10:47.640Z,22.83
2018-08-18T01:13:16.796Z,22.80
2018-08-18T01:15:45.961Z,22.98
2018-08-18T01:18:14.897Z,22.93
2018-08-18T01:20:43.905Z,22.88
2018-08-18T01:23:13.521Z,22.82
2018-08-18T01:25:42.962Z,22.70
2018-08-18T01:28:12.813Z,22.68
2018-08-18T01:30:42.757Z,22.79
2018-08-18T01:33:15.862Z,22.90
2018-08-18T01:35:45.321Z,22.86
2018-08-18T01:38:20.220Z,22.80
2018-08-18T01:40:54.872Z,22.76
2018-08-18T01:43:25.947Z,22.45
2018-08-18T01:45:56.585Z,22.46
2018-08-18T01:48:27.455Z,22.62
2018-08-18T01:51:09.026Z,22.66
2018-08-18T01:53:39.848Z,22.54
2018-08-18T01:56:11.337Z,22.27
2018-08-18T01:58:43.686Z,22.33
2018-08-18T02:01:17.389Z,22.56
2018-08-18T02:03:47.495Z,22.53
2018-08-18T02:06:19.045Z,22.41
2018-08-18T02:08:59.526Z,22.19
2018-08-18T02:11:30.972Z,22.36
2018-08-18T02:14:03.422Z,22.37
2018-08-18T02:16:35.831Z,22.21
2018-08-18T02:19:06.972Z,22.36
2018-08-18T02:21:38.626Z,22.53
2018-08-18T02:24:10.850Z,22.36
2018-08-18T02:26:42.403Z,22.13
2018-08-18T02:29:13.290Z,22.16
2018-08-18T02:31:44.011Z,22.35
2018-08-18T02:34:14.649Z,22.44
2018-08-18T02:36:49.985Z,22.41
2018-08-18T02:39:22.383Z,22.35
2018-08-18T02:42:05.968Z,22.41
2018-08-18T02:44:36.613Z,21.95
2018-08-18T02:47:07.562Z,21.99
2018-08-18T02:49:42.987Z,21.84
2018-08-18T02:52:24.886Z,21.80
2018-08-18T02:55:01.078Z,21.83
2018-08-18T02:57:34.283Z,21.95
2018-08-18T03:00:07.934Z,21.60
2018-08-18T03:02:39.687Z,21.94
2018-08-18T03:05:12.440Z,22.09
2018-08-18T03:07:48.802Z,22.03
2018-08-18T03:10:27.702Z,21.93
2018-08-18T03:13:02.471Z,21.68
2018-08-18T03:16:11.745Z,21.69
2018-08-18T03:18:49.144Z,21.73
2018-08-18T03:21:18.361Z,21.45
2018-08-18T03:23:58.654Z,21.59
2018-08-18T03:26:35.945Z,21.49
2018-08-18T03:29:05.397Z,21.44
2018-08-18T03:31:34.260Z,21.03
2018-08-18T03:34:03.682Z,21.15
2018-08-18T03:36:35.748Z,21.06
2018-08-18T03:39:08.082Z,21.27
2018-08-18T03:41:37.225Z,21.50
2018-08-18T03:44:06.113Z,21.48
2018-08-18T03:46:35.125Z,21.34
2018-08-18T03:49:03.972Z,21.30
2018-08-18T03:51:39.057Z,21.35
2018-08-18T03:54:14.977Z,21.37
2018-08-18T03:56:44.194Z,21.38
2018-08-18T03:59:13.028Z,21.36
2018-08-18T04:01:53.372Z,21.21
2018-08-18T04:04:23.982Z,21.32
2018-08-18T04:06:54.255Z,21.47
2018-08-18T04:09:24.491Z,21.57
2018-08-18T04:11:53.920Z,21.45
2018-08-18T04:14:43.634Z,21.39
2018-08-18T04:17:24.434Z,21.57
2018-08-18T04:19:53.409Z,21.50
2018-08-18T04:22:23.200Z,21.59
2018-08-18T04:24:52.285Z,21.55
2018-08-18T04:27:41.758Z,21.50
2018-08-18T04:30:25.272Z,21.42
2018-08-18T04:32:56.309Z,21.82
2018-08-18T04:35:26.514Z,22.11
2018-08-18T04:37:56.257Z,22.36
2018-08-18T04:40:25.667Z,22.60
2018-08-18T04:43:00.142Z,22.37
2018-08-18T04:45:29.140Z,22.29
2018-08-18T04:47:58.217Z,22.19
2018-08-18T04:50:27.067Z,22.09
2018-08-18T04:52:56.035Z,22.13
2018-08-18T04:55:25.901Z,22.21
2018-08-18T04:57:54.931Z,22.15
2018-08-18T05:00:25.411Z,22.53
2018-08-18T05:02:58.358Z,22.98
2018-08-18T05:05:29.370Z,23.00
2018-08-18T05:08:00.185Z,23.12
2018-08-18T05:10:29.253Z,23.60
2018-08-18T05:12:58.180Z,23.88
2018-08-18T05:15:27.173Z,24.13
2018-08-18T05:17:56.135Z,24.33
2018-08-18T05:20:26.296Z,24.32
2018-08-18T05:22:57.050Z,24.47
2018-08-18T05:25:31.080Z,24.54
2018-08-18T05:28:01.109Z,24.39
2018-08-18T05:30:29.952Z,24.65
2018-08-18T05:32:58.796Z,24.93
2018-08-18T05:35:34.258Z,25.14
2018-08-18T05:38:03.223Z,24.98
2018-08-18T05:40:33.252Z,24.94
2018-08-18T05:43:02.770Z,24.98
2018-08-18T05:45:33.732Z,25.14
2018-08-18T05:48:02.756Z,25.47
2018-08-18T05:50:31.892Z,25.81
2018-08-18T05:53:23.176Z,26.07
2018-08-18T05:55:52.227Z,26.00
2018-08-18T05:58:21.187Z,26.22
2018-08-18T06:03:27.274Z,26.57
2018-08-18T06:05:57.900Z,26.67
2018-08-18T06:08:27.314Z,26.88
2018-08-18T06:10:56.197Z,26.99
2018-08-18T06:13:25.037Z,27.25
2018-08-18T06:16:08.341Z,27.56
2018-08-18T06:18:38.637Z,27.50
2018-08-18T06:21:08.006Z,27.68
2018-08-18T06:23:37.931Z,27.49
2018-08-18T06:26:07.454Z,27.70
2018-08-18T06:28:36.380Z,27.83
2018-08-18T06:31:05.317Z,27.66
2018-08-18T06:33:34.250Z,27.83
2018-08-18T06:38:37.870Z,27.74
2018-08-18T06:41:07.263Z,27.64
2018-08-18T06:43:36.161Z,27.89
2018-08-18T06:46:05.120Z,28.39
2018-08-18T06:48:36.579Z,28.15
2018-08-18T06:51:05.510Z,28.10
2018-08-18T06:53:40.220Z,28.41
2018-08-18T06:56:09.393Z,28.43
2018-08-18T06:58:38.429Z,28.28
2018-08-18T07:01:07.869Z,28.49
2018-08-18T07:03:40.651Z,28.59
2018-08-18T07:06:11.929Z,28.77
2018-08-18T07:08:46.120Z,28.74
2018-08-18T07:11:15.081Z,29.00
2018-08-18T07:13:44.559Z,28.93
2018-08-18T07:16:13.523Z,28.80
2018-08-18T07:18:42.476Z,28.98
2018-08-18T07:21:11.936Z,28.80
2018-08-18T07:23:40.879Z,28.90
2018-08-18T07:26:10.025Z,29.01
2018-08-18T07:28:39.131Z,29.10
2018-08-18T07:31:08.020Z,29.31
2018-08-18T07:33:36.815Z,29.41
2018-08-18T07:36:05.626Z,29.37
2018-08-18T07:38:34.538Z,29.67
2018-08-18T07:41:03.498Z,29.98
2018-08-18T07:43:33.748Z,29.97
2018-08-18T07:46:04.163Z,29.84
2018-08-18T07:48:32.911Z,29.95
2018-08-18T07:51:01.987Z,30.06
2018-08-18T07:53:30.884Z,30.21
2018-08-18T07:55:59.755Z,30.19
2018-08-18T07:58:28.835Z,30.63
2018-08-18T08:01:02.234Z,30.68
2018-08-18T08:03:31.385Z,30.57
2018-08-18T08:06:00.361Z,30.73
2018-08-18T08:08:34.671Z,30.61
2018-08-18T08:11:08.968Z,30.82
2018-08-18T08:13:37.796Z,31.03
2018-08-18T08:16:06.657Z,30.81
2018-08-18T08:18:35.490Z,30.76
2018-08-18T08:21:04.436Z,31.05
2018-08-18T08:23:33.274Z,31.00
2018-08-18T08:26:02.122Z,31.01
2018-08-18T08:28:31.005Z,31.07
2018-08-18T08:31:00.066Z,31.03
2018-08-18T08:33:38.296Z,31.15
2018-08-18T08:36:10.101Z,31.34
2018-08-18T08:38:51.196Z,31.51
2018-08-18T08:41:23.065Z,31.68
2018-08-18T08:43:53.134Z,31.66
2018-08-18T08:46:23.081Z,31.74
2018-08-18T08:48:55.969Z,31.69
2018-08-18T08:51:25.744Z,32.15
2018-08-18T08:53:57.284Z,32.36
2018-08-18T08:56:35.112Z,32.50
2018-08-18T08:59:04.400Z,32.48
2018-08-18T09:01:33.358Z,32.32
2018-08-18T09:04:02.515Z,32.74
2018-08-18T09:06:31.736Z,33.06
2018-08-18T09:09:00.932Z,33.06
2018-08-18T09:11:30.282Z,32.75
2018-08-18T09:14:07.673Z,32.96
2018-08-18T09:16:37.272Z,32.76
2018-08-18T09:19:07.007Z,33.09
2018-08-18T09:21:44.093Z,32.75
2018-08-18T09:24:12.981Z,32.91
2018-08-18T09:26:48.485Z,33.39
2018-08-18T09:29:17.363Z,33.39
2018-08-18T09:31:46.669Z,33.30
2018-08-18T09:34:15.608Z,33.62
2018-08-18T09:36:45.465Z,33.87
2018-08-18T09:39:20.064Z,33.79
2018-08-18T09:41:49.226Z,34.04
2018-08-18T09:44:23.525Z,33.96
2018-08-18T09:46:52.604Z,33.78
2018-08-18T09:49:21.701Z,33.82
2018-08-18T09:51:50.831Z,34.10
2018-08-18T09:54:20.057Z,34.49
2018-08-18T09:56:49.104Z,34.80
2018-08-18T09:59:18.293Z,34.87
2018-08-18T10:01:47.902Z,34.85
2018-08-18T10:04:23.407Z,34.99
2018-08-18T10:06:53.038Z,34.97
2018-08-18T10:09:22.671Z,34.59
2018-08-18T10:11:51.704Z,34.53
2018-08-18T10:14:20.690Z,34.84
2018-08-18T10:16:49.796Z,35.06
2018-08-18T10:19:18.968Z,35.42
2018-08-18T10:21:48.018Z,35.69
2018-08-18T10:24:17.279Z,35.60
2018-08-18T10:26:53.004Z,35.78
2018-08-18T10:29:22.489Z,36.00
2018-08-18T10:31:52.490Z,35.98
2018-08-18T10:34:22.666Z,36.08
2018-08-18T10:36:55.226Z,36.14
2018-08-18T10:39:24.501Z,36.40
2018-08-18T10:42:03.795Z,36.23
2018-08-18T10:44:32.951Z,36.13
2018-08-18T10:47:15.946Z,36.31
2018-08-18T10:49:55.981Z,35.72
2018-08-18T10:52:37.966Z,35.71
2018-08-18T10:55:09.440Z,36.23
2018-08-18T10:57:50.519Z,36.12
2018-08-18T11:00:20.825Z,35.55
2018-08-18T11:02:50.986Z,35.14
2018-08-18T11:05:20.671Z,34.90
2018-08-18T11:07:56.018Z,34.74
2018-08-18T11:10:26.966Z,35.38
2018-08-18T11:12:56.940Z,35.60
2018-08-18T11:15:26.943Z,36.37
2018-08-18T11:17:57.968Z,36.00
2018-08-18T11:20:28.551Z,36.36
2018-08-18T11:23:05.095Z,36.13
2018-08-18T11:25:40.053Z,36.20
2018-08-18T11:28:09.956Z,36.49
2018-08-18T11:30:39.130Z,36.75
2018-08-18T11:33:08.108Z,36.36
2018-08-18T11:35:38.567Z,35.68
2018-08-18T11:38:12.438Z,35.05
2018-08-18T11:40:41.641Z,34.58
2018-08-18T11:43:12.736Z,34.23
2018-08-18T11:45:42.495Z,34.72
2018-08-18T11:48:14.374Z,35.02
2018-08-18T11:50:43.802Z,35.42
2018-08-18T11:53:12.976Z,35.18
2018-08-18T11:55:42.353Z,35.07
2018-08-18T11:58:12.858Z,35.74
2018-08-18T12:00:47.392Z,36.15
2018-08-18T12:03:17.998Z,36.30
2018-08-18T12:05:50.353Z,36.56
2018-08-18T12:08:20.608Z,36.18
2018-08-18T12:10:51.093Z,36.29
2018-08-18T12:13:27.163Z,36.52
2018-08-18T12:16:03.000Z,36.57
2018-08-18T12:18:32.875Z,36.62
2018-08-18T12:23:40.526Z,37.07
2018-08-18T12:26:12.222Z,36.74
2018-08-18T12:28:44.195Z,36.27
2018-08-18T12:31:15.946Z,36.71
2018-08-18T12:33:45.419Z,36.85
2018-08-18T12:36:14.812Z,36.92
2018-08-18T12:38:49.823Z,36.55
2018-08-18T12:41:18.943Z,35.89
2018-08-18T12:43:50.189Z,36.02
2018-08-18T12:46:21.596Z,36.57
2018-08-18T12:48:52.957Z,36.80
2018-08-18T12:51:22.411Z,37.00
2018-08-18T12:53:54.862Z,36.96
2018-08-18T12:56:26.809Z,37.21
2018-08-18T12:58:56.181Z,37.03
2018-08-18T13:01:39.769Z,36.54
2018-08-18T13:04:12.166Z,35.88
2018-08-18T13:06:43.938Z,36.54
2018-08-18T13:09:14.935Z,36.78
2018-08-18T13:11:45.351Z,36.69
2018-08-18T13:14:18.997Z,37.19
2018-08-18T13:16:48.138Z,37.28
2018-08-18T13:19:19.583Z,36.71
2018-08-18T13:21:48.772Z,36.07
2018-08-18T13:24:18.867Z,35.55
2018-08-18T13:26:48.104Z,35.26
2018-08-18T13:29:17.487Z,35.29
2018-08-18T13:31:46.792Z,35.46
2018-08-18T13:34:17.091Z,35.40
2018-08-18T13:36:47.156Z,34.99
2018-08-18T13:39:19.737Z,34.87
2018-08-18T13:41:50.774Z,34.45
2018-08-18T13:44:26.684Z,34.55
2018-08-18T13:46:56.237Z,34.15
2018-08-18T13:49:26.412Z,34.67
2018-08-18T13:51:55.350Z,34.73
2018-08-18T13:54:24.892Z,35.14
2018-08-18T13:56:54.159Z,34.51
2018-08-18T13:59:39.025Z,34.41
2018-08-18T14:02:08.315Z,34.95
2018-08-18T14:04:40.385Z,35.59
2018-08-18T14:07:09.849Z,35.94
2018-08-18T14:09:40.765Z,36.01
2018-08-18T14:12:17.349Z,35.95
2018-08-18T14:14:47.038Z,35.97
2018-08-18T14:17:18.344Z,35.41
2018-08-18T14:19:47.552Z,35.93
2018-08-18T14:22:18.985Z,36.22
2018-08-18T14:24:47.851Z,35.83
2018-08-18T14:27:20.326Z,35.50
2018-08-18T14:29:49.163Z,35.69
2018-08-18T14:32:23.272Z,35.91
2018-08-18T14:34:56.700Z,36.03
2018-08-18T14:37:25.523Z,36.28
2018-08-18T14:39:54.581Z,36.39
2018-08-18T14:42:23.823Z,36.51
2018-08-18T14:44:55.813Z,36.58
2018-08-18T14:47:25.288Z,36.52
2018-08-18T14:50:09.629Z,36.00
2018-08-18T14:52:38.753Z,35.99
2018-08-18T14:55:07.635Z,36.22
2018-08-18T14:57:37.784Z,35.66
2018-08-18T15:00:07.129Z,35.42
2018-08-18T15:02:36.182Z,35.32
2018-08-18T15:05:05.156Z,35.56
2018-08-18T15:07:38.838Z,35.90
2018-08-18T15:10:07.649Z,35.98
2018-08-18T15:12:36.648Z,36.01
2018-08-18T15:15:05.685Z,35.95
2018-08-18T15:17:34.656Z,36.34
2018-08-18T15:20:03.726Z,36.98
2018-08-18T15:22:34.655Z,36.23
2018-08-18T15:25:03.525Z,36.11
2018-08-18T15:27:32.670Z,35.52
2018-08-18T15:30:05.627Z,35.05
2018-08-18T15:32:34.708Z,34.53
2018-08-18T15:35:03.676Z,34.40
2018-08-18T15:37:32.549Z,34.46
2018-08-18T15:40:01.458Z,34.29
2018-08-18T15:42:30.340Z,34.21
2018-08-18T15:45:04.411Z,33.75
2018-08-18T15:47:33.222Z,33.89
2018-08-18T15:50:02.197Z,34.01
2018-08-18T15:52:33.142Z,34.08
2018-08-18T15:55:03.756Z,33.32
2018-08-18T15:57:33.128Z,33.02
2018-08-18T16:00:02.227Z,33.29
2018-08-18T16:02:31.047Z,32.88
2018-08-18T16:04:59.934Z,33.14
2018-08-18T16:07:29.129Z,33.12
2018-08-18T16:09:57.910Z,33.27
2018-08-18T16:12:26.792Z,33.56
2018-08-18T16:14:55.657Z,33.74
2018-08-18T16:17:24.913Z,34.10
2018-08-18T16:19:53.795Z,33.97
2018-08-18T16:22:22.666Z,34.02
2018-08-18T16:24:51.544Z,34.26
2018-08-18T16:27:20.332Z,34.61
2018-08-18T16:29:49.772Z,34.67
2018-08-18T16:32:22.925Z,34.96
2018-08-18T16:35:13.312Z,34.62
2018-08-18T16:37:45.667Z,34.10
2018-08-18T16:40:14.843Z,33.44
2018-08-18T16:42:43.692Z,33.14
2018-08-18T16:45:13.506Z,32.90
2018-08-18T16:47:51.552Z,32.82
2018-08-18T16:50:20.716Z,32.54
2018-08-18T16:52:49.594Z,32.19
2018-08-18T16:55:18.420Z,32.40
2018-08-18T16:57:47.251Z,32.28
2018-08-18T17:00:16.084Z,32.42
2018-08-18T17:02:44.896Z,32.26
2018-08-18T17:05:13.846Z,32.16
2018-08-18T17:07:43.966Z,32.05
2018-08-18T17:10:13.502Z,31.85
2018-08-18T17:12:42.399Z,31.66
2018-08-18T17:15:11.208Z,31.50
2018-08-18T17:17:40.008Z,31.41
2018-08-18T17:20:09.689Z,31.24
2018-08-18T17:22:38.564Z,30.75
2018-08-18T17:25:08.868Z,30.41
2018-08-18T17:27:40.912Z,30.09
2018-08-18T17:30:09.726Z,30.11
2018-08-18T17:32:38.505Z,30.04
2018-08-18T17:35:07.432Z,29.97
2018-08-18T17:37:36.239Z,29.80
2018-08-18T17:40:05.567Z,29.74
2018-08-18T17:42:34.449Z,29.83
2018-08-18T17:45:03.208Z,29.49
2018-08-18T17:47:33.711Z,29.37
2018-08-18T17:50:02.731Z,29.42
2018-08-18T17:52:31.941Z,29.10
2018-08-18T17:55:15.981Z,28.94
2018-08-18T17:57:45.599Z,28.83
2018-08-18T18:00:22.575Z,28.89
2018-08-18T18:02:56.466Z,29.05
2018-08-18T18:05:27.873Z,28.89
2018-08-18T18:07:59.037Z,28.86
2018-08-18T18:10:29.914Z,28.96
2018-08-18T18:12:58.951Z,29.20
2018-08-18T18:15:38.044Z,29.18
2018-08-18T18:18:11.509Z,28.77
2018-08-18T18:20:40.424Z,28.88
2018-08-18T18:23:12.098Z,28.84
2018-08-18T18:25:40.981Z,28.77
2018-08-18T18:28:09.848Z,28.73
2018-08-18T18:30:39.381Z,28.53
2018-08-18T18:33:09.150Z,28.26
2018-08-18T18:35:37.995Z,27.88
2018-08-18T18:38:07.077Z,27.87
2018-08-18T18:40:39.262Z,27.83
2018-08-18T18:43:08.355Z,27.75
2018-08-18T18:45:37.271Z,27.51
2018-08-18T18:48:07.373Z,27.84
2018-08-18T18:50:37.096Z,27.58
2018-08-18T18:53:05.936Z,27.51
2018-08-18T18:55:41.210Z,27.32
2018-08-18T18:58:12.354Z,27.42
2018-08-18T19:00:45.500Z,27.26
2018-08-18T19:03:14.501Z,27.26
2018-08-18T19:05:47.536Z,27.28
2018-08-18T19:08:18.020Z,27.33
2018-08-18T19:10:47.160Z,27.19
2018-08-18T19:13:16.730Z,26.95
2018-08-18T19:15:46.623Z,26.67
2018-08-18T19:18:15.741Z,26.99
2018-08-18T19:20:44.605Z,27.06
2018-08-18T19:23:15.287Z,27.01
2018-08-18T19:25:45.441Z,27.07
2018-08-18T19:28:23.431Z,27.07
2018-08-18T19:30:52.376Z,26.81
2018-08-18T19:33:21.697Z,26.79
2018-08-18T19:35:52.970Z,26.72
2018-08-18T19:38:22.972Z,26.74
2018-08-18T19:40:54.238Z,26.77
2018-08-18T19:43:25.096Z,26.84
2018-08-18T19:45:54.569Z,26.62
2018-08-18T19:48:24.586Z,26.68
2018-08-18T19:53:33.949Z,26.49
2018-08-18T19:56:03.227Z,26.58
2018-08-18T19:58:32.341Z,26.56
2018-08-18T20:03:35.835Z,26.35
2018-08-18T20:06:15.903Z,26.29
2018-08-18T20:08:44.723Z,25.93
2018-08-18T20:11:13.597Z,25.89
2018-08-18T20:13:42.459Z,25.86
2018-08-18T20:16:11.309Z,25.54
2018-08-18T20:18:40.224Z,25.44
2018-08-18T20:21:09.006Z,25.53
2018-08-18T20:23:37.858Z,25.55
2018-08-18T20:26:06.758Z,25.43
2018-08-18T20:28:35.604Z,25.24
2018-08-18T20:31:04.494Z,25.20
2018-08-18T20:33:33.321Z,25.22
2018-08-18T20:36:02.521Z,25.47
2018-08-18T20:38:36.644Z,25.40
2018-08-18T20:41:05.464Z,25.40
2018-08-18T20:43:34.280Z,25.61
2018-08-18T20:46:03.173Z,25.62
2018-08-18T20:48:32.062Z,25.30
2018-08-18T20:51:01.383Z,25.14
2018-08-18T20:53:30.159Z,25.21
2018-08-18T20:56:01.623Z,25.20
2018-08-18T20:58:32.108Z,25.03
2018-08-18T21:01:01.496Z,24.91
2018-08-18T21:03:44.475Z,24.82
2018-08-18T21:06:15.116Z,24.75
2018-08-18T21:08:44.034Z,24.63
2018-08-18T21:11:12.880Z,24.46
2018-08-18T21:13:41.665Z,24.41
2018-08-18T21:16:10.613Z,24.38
2018-08-18T21:18:39.479Z,24.23
2018-08-18T21:21:26.003Z,24.16
2018-08-18T21:23:55.084Z,24.11
2018-08-18T21:26:24.026Z,24.08
2018-08-18T21:28:55.010Z,24.08
2018-08-18T21:31:29.088Z,24.04
2018-08-18T21:33:59.530Z,23.82
2018-08-18T21:36:28.614Z,23.70
2018-08-18T21:39:00.261Z,23.72
2018-08-18T21:41:30.265Z,23.95
2018-08-18T21:43:59.220Z,23.89
2018-08-18T21:46:28.081Z,23.79
2018-08-18T21:48:56.912Z,23.60
2018-08-18T21:51:27.014Z,23.60
2018-08-18T21:53:55.873Z,23.47
2018-08-18T21:56:24.797Z,23.52
2018-08-18T21:58:53.604Z,23.54
2018-08-18T22:01:23.964Z,23.64
2018-08-18T22:03:55.517Z,23.69
2018-08-18T22:06:24.534Z,23.72
2018-08-18T22:09:03.268Z,23.53
2018-08-18T22:11:32.189Z,23.43
2018-08-18T22:14:01.015Z,23.27
2018-08-18T22:16:29.853Z,23.22
2018-08-18T22:19:02.984Z,23.25
2018-08-18T22:21:32.463Z,23.13
2018-08-18T22:24:02.679Z,23.13
2018-08-18T22:26:31.512Z,23.08
2018-08-18T22:29:02.301Z,22.83
2018-08-18T22:31:35.190Z,23.07
2018-08-18T22:34:05.173Z,23.00
2018-08-18T22:36:35.212Z,23.03
2018-08-18T22:39:06.232Z,23.02
2018-08-18T22:41:35.039Z,23.00
2018-08-18T22:44:03.939Z,23.01
2018-08-18T22:46:39.108Z,23.18
2018-08-18T22:49:08.035Z,23.05
2018-08-18T22:51:36.875Z,23.06
2018-08-18T22:54:05.666Z,23.15
2018-08-18T22:56:35.695Z,23.24
2018-08-18T22:59:06.622Z,23.12
2018-08-18T23:01:36.993Z,23.23
2018-08-18T23:04:18.923Z,23.21
2018-08-18T23:06:49.667Z,23.09
2018-08-18T23:09:19.084Z,22.96
2018-08-18T23:11:48.167Z,23.06
2018-08-18T23:14:17.355Z,23.02
2018-08-18T23:16:46.512Z,23.12
2018-08-18T23:19:15.685Z,23.24
2018-08-18T23:24:28.496Z,22.88
2018-08-18T23:26:58.064Z,22.79
2018-08-18T23:29:27.573Z,22.90
2018-08-18T23:31:57.064Z,22.88
2018-08-18T23:34:26.260Z,22.93
2018-08-18T23:36:56.113Z,22.95
2018-08-18T23:39:25.234Z,23.13
2018-08-18T23:42:26.167Z,23.30
2018-08-18T23:44:55.751Z,23.26
2018-08-18T23:47:25.202Z,23.12
2018-08-18T23:49:54.274Z,23.12
2018-08-18T23:52:23.661Z,23.09
2018-08-18T23:54:53.044Z,23.04
2018-08-18T23:57:22.256Z,23.11
2018-08-18T23:59:51.662Z,22.98
